createdAt,value
2018-06-01T00:00:29.595Z,100090.02
2018-06-01T00:02:57.469Z,100089.58
2018-06-01T00:05:25.238Z,100090.78
2018-06-01T00:07:53.616Z,100091.27
2018-06-01T00:10:21.191Z,100092.52
2018-06-01T00:12:50.367Z,100097.58
2018-06-01T00:15:17.971Z,100085.20
2018-06-01T00:17:46.115Z,100085.04
2018-06-01T00:20:13.713Z,100075.31
2018-06-01T00:23:05.032Z,100076.45
2018-06-01T00:25:32.655Z,100071.97
2018-06-01T00:28:00.223Z,100075.09
2018-06-01T00:30:29.767Z,100078.52
2018-06-01T00:32:57.489Z,100079.53
2018-06-01T00:35:25.129Z,100077.64
2018-06-01T00:37:52.892Z,100073.94
2018-06-01T00:40:20.376Z,100066.23
2018-06-01T00:42:48.615Z,100066.05
2018-06-01T00:45:16.805Z,100062.72
2018-06-01T00:47:45.087Z,100057.09
2018-06-01T00:50:12.625Z,100062.70
2018-06-01T00:52:40.097Z,100056.89
2018-06-01T00:55:19.543Z,100065.39
2018-06-01T00:57:47.047Z,100063.48
2018-06-01T01:00:14.517Z,100069.27
2018-06-01T01:02:41.985Z,100078.97
2018-06-01T01:05:09.445Z,100079.55
2018-06-01T01:07:36.990Z,100083.09
2018-06-01T01:10:04.445Z,100083.07
2018-06-01T01:12:31.927Z,100086.14
2018-06-01T01:14:59.416Z,100088.28
2018-06-01T01:17:26.859Z,100095.11
2018-06-01T01:19:54.317Z,100092.31
2018-06-01T01:22:22.269Z,100095.20
2018-06-01T01:24:49.703Z,100097.48
2018-06-01T01:27:17.205Z,100099.07
2018-06-01T01:29:46.382Z,100102.88
2018-06-01T01:32:14.858Z,100110.92
2018-06-01T01:34:42.600Z,100104.41
2018-06-01T01:37:10.056Z,100111.14
2018-06-01T01:39:37.684Z,100113.30
2018-06-01T01:42:05.381Z,100107.38
2018-06-01T01:44:33.044Z,100109.47
2018-06-01T01:47:00.602Z,100106.66
2018-06-01T01:49:28.264Z,100100.73
2018-06-01T01:51:55.724Z,100108.55
2018-06-01T01:54:23.587Z,100100.73
2018-06-01T01:56:51.061Z,100105.29
2018-06-01T01:59:18.750Z,100105.77
2018-06-01T02:01:47.033Z,100102.88
2018-06-01T02:04:15.005Z,100109.05
2018-06-01T02:06:42.544Z,100107.02
2018-06-01T02:09:10.325Z,100100.41
2018-06-01T02:11:37.866Z,100092.05
2018-06-01T02:14:05.315Z,100095.22
2018-06-01T02:16:32.815Z,100096.81
2018-06-01T02:19:00.242Z,100097.69
2018-06-01T02:21:27.713Z,100097.50
2018-06-01T02:23:55.591Z,100097.00
2018-06-01T02:26:23.663Z,100094.47
2018-06-01T02:28:51.271Z,100093.67
2018-06-01T02:31:18.923Z,100094.13
2018-06-01T02:34:10.063Z,100093.73
2018-06-01T02:36:41.123Z,100085.25
2018-06-01T02:39:08.818Z,100088.86
2018-06-01T02:41:36.858Z,100089.84
2018-06-01T02:44:04.501Z,100097.84
2018-06-01T02:46:32.755Z,100099.84
2018-06-01T02:49:00.414Z,100103.11
2018-06-01T02:51:27.921Z,100110.66
2018-06-01T02:53:55.463Z,100102.63
2018-06-01T02:56:23.015Z,100099.19
2018-06-01T02:58:50.492Z,100098.97
2018-06-01T03:01:17.966Z,100096.17
2018-06-01T03:03:45.506Z,100091.74
2018-06-01T03:06:13.967Z,100088.94
2018-06-01T03:08:41.417Z,100085.83
2018-06-01T03:11:08.927Z,100100.61
2018-06-01T03:13:46.265Z,100087.16
2018-06-01T03:16:13.760Z,100090.56
2018-06-01T03:18:41.223Z,100082.34
2018-06-01T03:21:08.672Z,100083.75
2018-06-01T03:23:37.155Z,100087.05
2018-06-01T03:26:04.694Z,100091.91
2018-06-01T03:28:32.151Z,100100.67
2018-06-01T03:31:00.247Z,100110.95
2018-06-01T03:33:28.021Z,100118.31
2018-06-01T03:35:57.083Z,100111.13
2018-06-01T03:38:24.535Z,100114.14
2018-06-01T03:40:52.391Z,100115.80
2018-06-01T03:43:39.903Z,100123.19
2018-06-01T03:46:07.363Z,100122.61
2018-06-01T03:48:35.129Z,100122.14
2018-06-01T03:51:02.611Z,100124.19
2018-06-01T03:53:30.095Z,100122.94
2018-06-01T03:55:58.621Z,100127.11
2018-06-01T03:58:27.431Z,100132.86
2018-06-01T04:00:54.919Z,100127.99
2018-06-01T04:03:22.449Z,100122.97
2018-06-01T04:05:51.267Z,100131.17
2018-06-01T04:08:18.961Z,100123.76
2018-06-01T04:10:47.267Z,100127.88
2018-06-01T04:13:15.991Z,100124.91
2018-06-01T04:15:44.403Z,100126.57
2018-06-01T04:18:11.883Z,100124.38
2018-06-01T04:20:40.116Z,100125.98
2018-06-01T04:26:00.772Z,100141.53
2018-06-01T04:28:29.422Z,100152.89
2018-06-01T04:30:59.263Z,100170.06
2018-06-01T04:33:28.232Z,100161.44
2018-06-01T04:35:56.116Z,100164.33
2018-06-01T04:38:26.410Z,100174.20
2018-06-01T04:40:53.962Z,100170.70
2018-06-01T04:43:21.418Z,100168.98
2018-06-01T04:45:49.326Z,100168.02
2018-06-01T04:48:16.810Z,100171.28
2018-06-01T04:50:44.394Z,100174.25
2018-06-01T04:53:16.839Z,100181.16
2018-06-01T04:55:44.279Z,100180.15
2018-06-01T04:58:12.522Z,100177.69
2018-06-01T05:00:39.979Z,100178.92
2018-06-01T05:03:07.440Z,100188.14
2018-06-01T05:05:34.895Z,100187.80
2018-06-01T05:08:02.499Z,100191.72
2018-06-01T05:10:29.961Z,100192.48
2018-06-01T05:12:57.411Z,100199.27
2018-06-01T05:15:24.876Z,100188.14
2018-06-01T05:17:52.352Z,100194.92
2018-06-01T05:20:20.006Z,100199.42
2018-06-01T05:22:47.459Z,100202.75
2018-06-01T05:25:14.911Z,100204.88
2018-06-01T05:27:42.400Z,100215.72
2018-06-01T05:30:12.686Z,100227.61
2018-06-01T05:32:40.187Z,100237.31
2018-06-01T05:35:07.649Z,100231.16
2018-06-01T05:37:35.181Z,100242.06
2018-06-01T05:40:02.980Z,100237.84
2018-06-01T05:42:30.445Z,100229.38
2018-06-01T05:44:57.881Z,100237.20
2018-06-01T05:47:25.381Z,100235.14
2018-06-01T05:49:52.828Z,100236.78
2018-06-01T05:52:20.359Z,100233.70
2018-06-01T05:54:47.811Z,100235.97
2018-06-01T05:57:15.295Z,100243.22
2018-06-01T05:59:42.895Z,100235.17
2018-06-01T06:02:10.365Z,100238.62
2018-06-01T06:04:37.896Z,100244.69
2018-06-01T06:07:05.361Z,100247.30
2018-06-01T06:09:32.827Z,100249.86
2018-06-01T06:12:00.287Z,100245.70
2018-06-01T06:14:27.743Z,100240.64
2018-06-01T06:16:55.199Z,100235.24
2018-06-01T06:19:22.656Z,100231.01
2018-06-01T06:21:50.134Z,100236.36
2018-06-01T06:24:17.603Z,100230.56
2018-06-01T06:26:45.061Z,100239.34
2018-06-01T06:29:12.516Z,100246.19
2018-06-01T06:31:39.951Z,100252.28
2018-06-01T06:34:07.469Z,100249.05
2018-06-01T06:36:34.946Z,100248.81
2018-06-01T06:39:02.407Z,100254.09
2018-06-01T06:41:29.893Z,100249.98
2018-06-01T06:43:58.281Z,100257.52
2018-06-01T06:46:25.733Z,100265.83
2018-06-01T06:48:53.187Z,100268.06
2018-06-01T06:51:20.625Z,100264.16
2018-06-01T06:53:48.071Z,100268.64
2018-06-01T06:56:15.603Z,100272.84
2018-06-01T06:58:43.686Z,100276.39
2018-06-01T07:01:12.005Z,100280.86
2018-06-01T07:03:39.611Z,100292.75
2018-06-01T07:06:07.157Z,100294.56
2018-06-01T07:08:34.655Z,100291.32
2018-06-01T07:11:02.248Z,100290.80
2018-06-01T07:13:29.747Z,100291.36
2018-06-01T07:15:57.202Z,100294.50
2018-06-01T07:18:24.691Z,100298.97
2018-06-01T07:20:52.159Z,100304.49
2018-06-01T07:23:19.638Z,100298.88
2018-06-01T07:25:47.115Z,100293.89
2018-06-01T07:28:14.577Z,100290.47
2018-06-01T07:30:42.080Z,100293.44
2018-06-01T07:33:09.566Z,100299.08
2018-06-01T07:35:37.117Z,100307.59
2018-06-01T07:38:04.647Z,100313.56
2018-06-01T07:40:33.094Z,100311.92
2018-06-01T07:43:05.457Z,100312.36
2018-06-01T07:45:32.937Z,100317.45
2018-06-01T07:48:01.320Z,100309.96
2018-06-01T07:50:28.827Z,100309.16
2018-06-01T07:52:56.287Z,100312.83
2018-06-01T07:55:23.749Z,100307.09
2018-06-01T07:57:51.238Z,100310.83
2018-06-01T08:00:18.787Z,100315.97
2018-06-01T08:02:46.265Z,100311.47
2018-06-01T08:05:13.746Z,100301.51
2018-06-01T08:07:41.207Z,100306.72
2018-06-01T08:10:08.693Z,100317.39
2018-06-01T08:12:36.159Z,100315.01
2018-06-01T08:15:03.652Z,100308.31
2018-06-01T08:17:31.127Z,100314.84
2018-06-01T08:19:58.850Z,100317.31
2018-06-01T08:22:26.318Z,100313.26
2018-06-01T08:24:53.776Z,100314.36
2018-06-01T08:27:22.196Z,100317.66
2018-06-01T08:29:49.684Z,100318.65
2018-06-01T08:32:17.175Z,100314.17
2018-06-01T08:34:44.650Z,100310.25
2018-06-01T08:37:12.337Z,100311.31
2018-06-01T08:39:42.787Z,100305.78
2018-06-01T08:42:10.549Z,100294.90
2018-06-01T08:44:38.823Z,100295.05
2018-06-01T08:47:06.284Z,100291.36
2018-06-01T08:49:33.767Z,100291.39
2018-06-01T08:52:01.207Z,100291.02
2018-06-01T08:54:33.792Z,100289.48
2018-06-01T08:57:01.251Z,100291.23
2018-06-01T08:59:28.705Z,100288.05
2018-06-01T09:01:56.228Z,100286.20
2018-06-01T09:04:33.462Z,100281.46
2018-06-01T09:07:00.897Z,100283.22
2018-06-01T09:12:18.554Z,100281.06
2018-06-01T09:14:46.015Z,100270.03
2018-06-01T09:17:13.463Z,100274.04
2018-06-01T09:19:40.912Z,100276.54
2018-06-01T09:24:41.346Z,100282.77
2018-06-01T09:27:08.813Z,100294.85
2018-06-01T09:29:36.262Z,100286.72
2018-06-01T09:32:03.753Z,100291.27
2018-06-01T09:34:31.281Z,100293.80
2018-06-01T09:36:58.667Z,100289.15
2018-06-01T09:39:26.134Z,100294.64
2018-06-01T09:41:53.574Z,100295.38
2018-06-01T09:44:21.866Z,100292.48
2018-06-01T09:46:49.496Z,100289.24
2018-06-01T09:49:17.000Z,100277.66
2018-06-01T09:51:44.491Z,100276.14
2018-06-01T09:54:12.582Z,100269.36
2018-06-01T09:56:40.349Z,100278.48
2018-06-01T09:59:07.792Z,100283.75
2018-06-01T10:01:35.284Z,100283.05
2018-06-01T10:04:02.760Z,100286.00
2018-06-01T10:06:30.198Z,100284.45
2018-06-01T10:08:57.655Z,100284.27
2018-06-01T10:11:25.088Z,100286.64
2018-06-01T10:13:52.546Z,100279.89
2018-06-01T10:16:20.001Z,100281.97
2018-06-01T10:18:47.439Z,100286.32
2018-06-01T10:21:14.938Z,100279.05
2018-06-01T10:23:42.397Z,100279.48
2018-06-01T10:26:10.360Z,100276.50
2018-06-01T10:28:37.806Z,100287.84
2018-06-01T10:31:05.284Z,100280.52
2018-06-01T10:33:34.469Z,100289.94
2018-06-01T10:36:02.205Z,100287.25
2018-06-01T10:38:29.702Z,100291.56
2018-06-01T10:40:58.179Z,100288.66
2018-06-01T10:43:25.736Z,100287.67
2018-06-01T10:45:53.237Z,100295.20
2018-06-01T10:48:20.713Z,100289.05
2018-06-01T10:50:50.004Z,100293.58
2018-06-01T10:53:18.172Z,100294.30
2018-06-01T10:55:45.718Z,100285.56
2018-06-01T10:58:13.180Z,100285.88
2018-06-01T11:00:40.938Z,100288.92
2018-06-01T11:03:08.498Z,100284.75
2018-06-01T11:05:35.987Z,100283.28
2018-06-01T11:08:04.365Z,100283.56
2018-06-01T11:10:31.964Z,100280.34
2018-06-01T11:12:59.503Z,100278.55
2018-06-01T11:15:26.986Z,100274.71
2018-06-01T11:17:54.536Z,100268.16
2018-06-01T11:20:22.059Z,100269.20
2018-06-01T11:22:49.524Z,100260.49
2018-06-01T11:25:17.012Z,100272.16
2018-06-01T11:27:44.466Z,100271.19
2018-06-01T11:30:11.924Z,100272.78
2018-06-01T11:32:39.442Z,100268.70
2018-06-01T11:35:07.108Z,100265.20
2018-06-01T11:37:34.586Z,100266.95
2018-06-01T11:40:02.181Z,100263.98
2018-06-01T11:42:29.680Z,100263.78
2018-06-01T11:44:57.966Z,100260.48
2018-06-01T11:47:25.592Z,100259.88
2018-06-01T11:49:53.141Z,100263.52
2018-06-01T11:52:20.620Z,100256.44
2018-06-01T11:54:48.056Z,100247.00
2018-06-01T11:57:15.588Z,100245.20
2018-06-01T11:59:43.016Z,100237.92
2018-06-01T12:02:10.469Z,100235.88
2018-06-01T12:04:38.137Z,100235.21
2018-06-01T12:07:06.409Z,100239.69
2018-06-01T12:09:33.969Z,100236.73
2018-06-01T12:12:01.433Z,100234.70
2018-06-01T12:14:28.945Z,100233.84
2018-06-01T12:16:56.386Z,100233.36
2018-06-01T12:19:23.883Z,100224.66
2018-06-01T12:21:51.429Z,100226.08
2018-06-01T12:24:18.908Z,100214.62
2018-06-01T12:26:46.376Z,100217.06
2018-06-01T12:29:14.245Z,100204.31
2018-06-01T12:31:41.720Z,100197.50
2018-06-01T12:34:09.428Z,100203.08
2018-06-01T12:36:36.923Z,100187.78
2018-06-01T12:39:05.222Z,100189.03
2018-06-01T12:41:32.730Z,100192.67
2018-06-01T12:44:00.184Z,100187.98
2018-06-01T12:46:27.673Z,100197.08
2018-06-01T12:48:55.202Z,100179.67
2018-06-01T12:51:22.758Z,100194.53
2018-06-01T12:53:50.232Z,100191.79
2018-06-01T12:56:17.689Z,100191.12
2018-06-01T12:58:45.218Z,100191.22
2018-06-01T13:01:13.608Z,100200.26
2018-06-01T13:03:41.683Z,100202.08
2018-06-01T13:06:09.158Z,100207.22
2018-06-01T13:08:36.598Z,100208.91
2018-06-01T13:11:04.072Z,100197.98
2018-06-01T13:13:31.532Z,100202.59
2018-06-01T13:15:59.008Z,100196.13
2018-06-01T13:18:26.467Z,100206.08
2018-06-01T13:20:53.944Z,100193.80
2018-06-01T13:23:21.408Z,100199.36
2018-06-01T13:25:48.857Z,100201.79
2018-06-01T13:28:16.324Z,100192.44
2018-06-01T13:30:44.128Z,100191.16
2018-06-01T13:33:11.584Z,100191.77
2018-06-01T13:35:39.092Z,100193.68
2018-06-01T13:38:06.560Z,100190.69
2018-06-01T13:40:34.004Z,100181.23
2018-06-01T13:43:01.504Z,100196.14
2018-06-01T13:45:28.997Z,100183.74
2018-06-01T13:47:56.454Z,100186.64
2018-06-01T13:50:23.916Z,100194.77
2018-06-01T13:52:51.353Z,100192.22
2018-06-01T13:55:18.828Z,100192.06
2018-06-01T13:57:46.293Z,100174.24
2018-06-01T14:00:13.963Z,100175.22
2018-06-01T14:02:41.590Z,100174.42
2018-06-01T14:05:09.107Z,100163.98
2018-06-01T14:07:36.599Z,100159.75
2018-06-01T14:10:04.080Z,100156.57
2018-06-01T14:12:31.519Z,100145.06
2018-06-01T14:14:59.001Z,100138.05
2018-06-01T14:17:26.480Z,100136.96
2018-06-01T14:19:54.004Z,100133.66
2018-06-01T14:22:21.610Z,100128.02
2018-06-01T14:24:49.100Z,100118.64
2018-06-01T14:27:16.572Z,100113.23
2018-06-01T14:29:44.848Z,100124.32
2018-06-01T14:32:12.324Z,100127.88
2018-06-01T14:34:39.798Z,100125.31
2018-06-01T14:37:07.268Z,100133.97
2018-06-01T14:39:34.822Z,100140.43
2018-06-01T14:42:02.355Z,100144.39
2018-06-01T14:44:29.860Z,100148.87
2018-06-01T14:46:57.389Z,100145.47
2018-06-01T14:49:25.431Z,100139.85
2018-06-01T14:52:10.785Z,100141.56
2018-06-01T14:54:38.281Z,100150.83
2018-06-01T14:57:05.742Z,100173.94
2018-06-01T14:59:33.193Z,100173.16
2018-06-01T15:02:00.664Z,100175.81
2018-06-01T15:04:28.141Z,100171.77
2018-06-01T15:06:55.585Z,100181.83
2018-06-01T15:09:23.071Z,100185.42
2018-06-01T15:11:50.548Z,100184.09
2018-06-01T15:14:18.055Z,100200.45
2018-06-01T15:16:45.548Z,100193.64
2018-06-01T15:19:12.977Z,100197.12
2018-06-01T15:21:40.688Z,100200.94
2018-06-01T15:24:08.394Z,100208.12
2018-06-01T15:26:35.877Z,100209.64
2018-06-01T15:29:03.356Z,100219.71
2018-06-01T15:31:30.893Z,100229.95
2018-06-01T15:33:58.434Z,100241.39
2018-06-01T15:36:25.898Z,100242.88
2018-06-01T15:38:53.368Z,100254.66
2018-06-01T15:41:21.101Z,100253.36
2018-06-01T15:43:48.605Z,100251.77
2018-06-01T15:46:16.083Z,100252.64
2018-06-01T15:48:43.555Z,100263.99
2018-06-01T15:51:11.001Z,100271.27
2018-06-01T15:53:38.652Z,100285.99
2018-06-01T15:56:06.130Z,100287.35
2018-06-01T15:58:33.920Z,100286.81
2018-06-01T16:01:01.387Z,100290.67
2018-06-01T16:03:28.835Z,100289.88
2018-06-01T16:05:56.296Z,100291.74
2018-06-01T16:08:23.795Z,100285.72
2018-06-01T16:10:51.255Z,100275.66
2018-06-01T16:13:18.715Z,100293.64
2018-06-01T16:15:46.268Z,100299.89
2018-06-01T16:18:13.795Z,100297.53
2018-06-01T16:20:41.248Z,100285.17
2018-06-01T16:23:13.673Z,100279.34
2018-06-01T16:25:41.183Z,100278.27
2018-06-01T16:28:08.644Z,100264.52
2018-06-01T16:30:36.308Z,100254.83
2018-06-01T16:33:03.907Z,100252.62
2018-06-01T16:35:31.578Z,100240.59
2018-06-01T16:38:00.095Z,100235.20
2018-06-01T16:40:27.575Z,100229.16
2018-06-01T16:42:55.031Z,100225.22
2018-06-01T16:45:22.502Z,100229.73
2018-06-01T16:47:50.100Z,100221.07
2018-06-01T16:50:17.611Z,100217.58
2018-06-01T16:52:45.085Z,100228.80
2018-06-01T16:55:13.647Z,100221.70
2018-06-01T16:57:41.180Z,100221.88
2018-06-01T17:00:08.683Z,100233.52
2018-06-01T17:02:36.586Z,100237.98
2018-06-01T17:05:04.070Z,100236.44
2018-06-01T17:07:31.658Z,100234.71
2018-06-01T17:09:59.140Z,100232.05
2018-06-01T17:12:26.599Z,100227.25
2018-06-01T17:14:54.149Z,100224.38
2018-06-01T17:17:21.671Z,100228.64
2018-06-01T17:19:49.113Z,100224.02
2018-06-01T17:22:17.023Z,100236.41
2018-06-01T17:24:44.479Z,100235.78
2018-06-01T17:27:11.952Z,100243.36
2018-06-01T17:29:39.401Z,100249.92
2018-06-01T17:32:06.872Z,100249.14
2018-06-01T17:34:34.323Z,100248.30
2018-06-01T17:37:01.755Z,100247.37
2018-06-01T17:39:29.199Z,100242.32
2018-06-01T17:41:56.679Z,100247.53
2018-06-01T17:44:24.155Z,100242.11
2018-06-01T17:46:51.653Z,100241.16
2018-06-01T17:49:19.791Z,100240.00
2018-06-01T17:51:47.279Z,100235.69
2018-06-01T17:54:14.785Z,100241.48
2018-06-01T17:56:42.271Z,100238.52
2018-06-01T17:59:09.759Z,100237.00
2018-06-01T18:01:37.253Z,100232.92
2018-06-01T18:04:04.780Z,100242.25
2018-06-01T18:06:32.300Z,100242.27
2018-06-01T18:08:59.795Z,100238.41
2018-06-01T18:11:27.283Z,100241.73
2018-06-01T18:13:55.152Z,100239.38
2018-06-01T18:16:22.623Z,100243.25
2018-06-01T18:18:50.092Z,100233.73
2018-06-01T18:21:17.593Z,100231.19
2018-06-01T18:23:45.251Z,100235.12
2018-06-01T18:26:13.643Z,100232.56
2018-06-01T18:28:41.155Z,100234.15
2018-06-01T18:31:09.591Z,100232.36
2018-06-01T18:33:37.090Z,100234.80
2018-06-01T18:36:04.725Z,100232.98
2018-06-01T18:38:32.315Z,100236.11
2018-06-01T18:40:59.862Z,100236.95
2018-06-01T18:43:27.415Z,100239.36
2018-06-01T18:45:54.917Z,100229.66
2018-06-01T18:48:22.413Z,100228.38
2018-06-01T18:50:50.023Z,100231.98
2018-06-01T18:53:17.563Z,100236.70
2018-06-01T18:55:45.149Z,100236.59
2018-06-01T18:58:12.721Z,100232.31
2018-06-01T19:00:41.114Z,100235.80
2018-06-01T19:03:08.648Z,100236.23
2018-06-01T19:05:36.188Z,100236.58
2018-06-01T19:08:04.146Z,100231.35
2018-06-01T19:10:31.704Z,100229.25
2018-06-01T19:12:59.254Z,100227.73
2018-06-01T19:15:26.765Z,100230.04
2018-06-01T19:17:54.289Z,100227.42
2018-06-01T19:20:21.907Z,100230.10
2018-06-01T19:22:49.354Z,100239.08
2018-06-01T19:25:16.856Z,100238.30
2018-06-01T19:27:45.459Z,100246.71
2018-06-01T19:30:13.113Z,100249.22
2018-06-01T19:32:40.629Z,100247.62
2018-06-01T19:35:08.259Z,100250.73
2018-06-01T19:37:36.375Z,100255.81
2018-06-01T19:40:04.087Z,100253.55
2018-06-01T19:42:33.255Z,100257.84
2018-06-01T19:45:00.837Z,100260.40
2018-06-01T19:47:28.364Z,100260.42
2018-06-01T19:49:55.912Z,100260.05
2018-06-01T19:52:23.452Z,100264.15
2018-06-01T19:54:51.183Z,100272.38
2018-06-01T19:57:19.913Z,100266.36
2018-06-01T19:59:47.598Z,100276.66
2018-06-01T20:02:16.095Z,100278.23
2018-06-01T20:04:45.892Z,100282.65
2018-06-01T20:07:13.589Z,100286.75
2018-06-01T20:09:41.193Z,100291.91
2018-06-01T20:12:10.025Z,100291.44
2018-06-01T20:14:38.540Z,100296.83
2018-06-01T20:17:06.736Z,100298.95
2018-06-01T20:19:34.255Z,100291.48
2018-06-01T20:22:01.864Z,100295.71
2018-06-01T20:24:29.592Z,100295.06
2018-06-01T20:26:57.121Z,100294.02
2018-06-01T20:29:25.441Z,100296.89
2018-06-01T20:31:53.297Z,100289.46
2018-06-01T20:34:20.822Z,100298.19
2018-06-01T20:36:48.823Z,100299.75
2018-06-01T20:39:16.588Z,100304.26
2018-06-01T20:41:44.259Z,100310.92
2018-06-01T20:44:11.255Z,100318.66
2018-06-01T20:46:39.089Z,100319.48
2018-06-01T20:49:06.756Z,100317.64
2018-06-01T20:51:34.477Z,100323.44
2018-06-01T20:54:03.181Z,100325.66
2018-06-01T20:56:30.975Z,100327.20
2018-06-01T20:58:58.553Z,100324.05
2018-06-01T21:01:26.309Z,100325.41
2018-06-01T21:03:53.897Z,100322.88
2018-06-01T21:06:22.443Z,100320.91
2018-06-01T21:08:50.645Z,100328.83
2018-06-01T21:11:18.159Z,100323.65
2018-06-01T21:13:45.983Z,100317.80
2018-06-01T21:16:13.773Z,100314.09
2018-06-01T21:18:41.325Z,100320.50
2018-06-01T21:21:09.576Z,100326.17
2018-06-01T21:23:37.230Z,100323.02
2018-06-01T21:26:04.839Z,100324.78
2018-06-01T21:28:33.470Z,100323.67
2018-06-01T21:31:01.077Z,100320.21
2018-06-01T21:33:28.755Z,100322.08
2018-06-01T21:35:57.216Z,100316.61
2018-06-01T21:38:28.595Z,100320.53
2018-06-01T21:40:57.333Z,100330.61
2018-06-01T21:43:25.029Z,100324.77
2018-06-01T21:45:52.507Z,100330.33
2018-06-01T21:48:20.242Z,100329.49
2018-06-01T21:50:47.786Z,100328.39
2018-06-01T21:53:15.468Z,100327.48
2018-06-01T21:55:43.011Z,100332.61
2018-06-01T21:58:10.747Z,100331.14
2018-06-01T22:00:38.330Z,100325.87
2018-06-01T22:03:06.008Z,100322.72
2018-06-01T22:05:33.501Z,100325.83
2018-06-01T22:08:01.038Z,100324.80
2018-06-01T22:10:28.514Z,100321.58
2018-06-01T22:12:55.982Z,100320.22
2018-06-01T22:15:23.857Z,100320.91
2018-06-01T22:17:51.265Z,100319.52
2018-06-01T22:20:18.942Z,100316.45
2018-06-01T22:22:46.431Z,100312.89
2018-06-01T22:25:14.706Z,100309.23
2018-06-01T22:27:42.420Z,100304.18
2018-06-01T22:30:10.017Z,100303.19
2018-06-01T22:32:37.642Z,100302.97
2018-06-01T22:35:05.177Z,100301.44
2018-06-01T22:37:33.478Z,100294.63
2018-06-01T22:40:01.020Z,100291.00
2018-06-01T22:42:28.482Z,100299.59
2018-06-01T22:44:56.026Z,100294.58
2018-06-01T22:47:23.801Z,100296.70
2018-06-01T22:49:52.401Z,100299.19
2018-06-01T22:52:20.042Z,100305.75
2018-06-01T22:54:47.563Z,100306.39
2018-06-01T22:57:15.240Z,100303.47
2018-06-01T22:59:42.761Z,100307.93
2018-06-01T23:02:10.458Z,100305.45
2018-06-01T23:04:38.030Z,100303.47
2018-06-01T23:07:05.603Z,100299.19
2018-06-01T23:09:33.060Z,100304.08
2018-06-01T23:12:02.408Z,100299.94
2018-06-01T23:14:29.985Z,100298.02
2018-06-01T23:16:57.547Z,100304.66
2018-06-01T23:19:25.011Z,100298.27
2018-06-01T23:21:52.493Z,100302.38
2018-06-01T23:24:19.939Z,100297.72
2018-06-01T23:26:47.479Z,100306.48
2018-06-01T23:29:15.159Z,100307.45
2018-06-01T23:31:44.031Z,100302.21
2018-06-01T23:34:21.216Z,100297.77
2018-06-01T23:36:48.710Z,100292.77
2018-06-01T23:39:16.156Z,100296.38
2018-06-01T23:41:45.687Z,100289.70
2018-06-01T23:44:14.331Z,100293.48
2018-06-01T23:46:41.786Z,100299.97
2018-06-01T23:49:09.227Z,100300.23
2018-06-01T23:51:36.667Z,100298.33
2018-06-01T23:54:04.195Z,100296.84
2018-06-01T23:56:31.631Z,100291.41
2018-06-01T23:58:59.349Z,100295.55
